Beniamino Kalounaiwai

Chefscout - Lautoka
21 Okt 2027
Donnerstag
Verarbeitung

Persönlichkeit

Anpassungsfähigkeit (12) Ehrgeiz (6) Kontroverse (18) Loyalität (13) Druck (6) Professionalität (1) Fairness (13) Temperament (4)

Profil

Trainerstil Demokratisch
Lizenz Nationale A
Entschlossenheit 7
Menschenführung 2
Motivation 6
Disziplin 2
Arbeitszufriedenheit
100%
Ermüdung
0%
Rolle Chefscout
Gehalt 12.8K p/W
Vertrag 14.03.2030

Leistung

Verhalten Gut
Trainingseffektivität
24%
Spielerentwicklung
5%
Verletzungsprävention
20%
Taktische Umsetzung
35%

Letzte Ereignisse

Spieler begutachtet jetzt
Spieler begutachtet jetzt
Spieler begutachtet jetzt
Nahm an einer Scouting-Besprechung teil jetzt
Spieler begutachtet jetzt
Spieler begutachtet 7T her
Spieler begutachtet 7T her
Spieler begutachtet 7T her

Aktuell beobachtet

554
Spieler Verein Status Fähigkeit Vertrauen Beobachtet Zuletzt beobachtet Letzte Stimme
Lungisani Mncwabe PSIM Aktiv 86 / 57 40% 3 20.10.2027 -
Alejo Medina Agropecuario Argentino Aktiv 103 / 117 40% 3 20.10.2027 -
Elías Contreras Morón Aktiv 110 / 112 40% 10 20.10.2027 -
Lautaro Toledo Gimnasia y Esgrima Aktiv 104 / 102 40% 2 20.10.2027 -
Bayanda Zulu Aktobe Aktiv 64 / 88 40% 2 19.10.2027 -
Facundo Lemos Artigas Aktiv 97 / 92 40% 1 19.10.2027 -
Pablo da Silveira Cerro Aktiv 92 / 100 40% 3 18.10.2027 -
Juan Ignacio Dupont Central Espanol Aktiv 100 / 89 40% 3 18.10.2027 -
Pablo Viudez Rentistas Aktiv 87 / 113 40% 4 18.10.2027 -
Marcelo Miño Ferro Carril Oeste Aktiv 109 / 120 40% 4 18.10.2027 -
Iván Fernández Colegiales Aktiv 107 / 82 40% 1 18.10.2027 -
Bonphas Munyasa Persebaya Aktiv 75 / 85 40% 1 18.10.2027 -
Tiago Libares All Boys Aktiv 89 / 94 40% 4 17.10.2027 -
Nahuel Suárez La Luz Aktiv 124 / 107 40% 3 17.10.2027 -
Miguel Pernía Estudiantes de Caracas Aktiv 91 / 102 40% 2 16.10.2027 -
Brian Mancini Rampla Juniors Aktiv 72 / 75 40% 3 16.10.2027 -
Pablo Picón Floriana Aktiv 78 / 94 40% 1 16.10.2027 -
Lucas Camejo River Plate Aktiv 84 / 96 40% 1 16.10.2027 -
Gonzalo Larrazábal Deportivo Maldonado Aktiv 115 / 107 40% 2 15.10.2027 -
Joaquín Ochoa Giménez Arsenal Aktiv 90 / 95 40% 2 15.10.2027 -
Gaetano Motta Patronato Aktiv 103 / 108 40% 2 14.10.2027 -
José Sanhueza Universidad de Concepcion Aktiv 76 / 89 40% 4 14.10.2027 -
Jerónimo Porto Lapegüe San Telmo Aktiv 119 / 104 40% 2 14.10.2027 -
Gian Piaggio Colón Aktiv 83 / 93 40% 1 14.10.2027 -
Nahuel Marzochi Colon Aktiv 102 / 85 40% 1 14.10.2027 -
Santiago Briñone San Martín Aktiv 124 / 123 40% 3 13.10.2027 -
Federico Acosta Miramar Misiones Aktiv 96 / 116 40% 2 13.10.2027 -
Matías Rapetti Defensores Unidos Aktiv 107 / 114 40% 1 13.10.2027 -
Matías Samaniego Talleres Aktiv 89 / 108 40% 1 13.10.2027 -
Rodrigo Fernández Alvarado Aktiv 78 / 86 40% 3 11.10.2027 -
Nicolás Fuica Deportivo Maldonado Aktiv 109 / 110 40% 2 11.10.2027 -
Juan Galetto Gimnasia y Tiro Aktiv 92 / 105 40% 1 11.10.2027 -
Nicolás Ferreyra Gimnasia y Esgrima Aktiv 127 / 98 40% 1 10.10.2027 -
Octávio Silva Artigas Aktiv 72 / 90 40% 1 10.10.2027 -
Agustín Mieres Atlanta Aktiv 79 / 93 40% 5 09.10.2027 -
Valentino Werro Temperley Aktiv 114 / 107 40% 6 09.10.2027 -
Tomás Velásquez Deportes Tolima Aktiv 105 / 91 40% 4 09.10.2027 -
Julián Lobelos Arsenal Aktiv 113 / 108 40% 3 09.10.2027 -
Lucio Castillo Colegiales Aktiv 103 / 101 40% 1 09.10.2027 -
Agustín Tejera Fenix Aktiv 81 / 94 40% 1 09.10.2027 -
Santiago Valenzuela Chaco For Ever Aktiv 111 / 114 40% 5 08.10.2027 -
Manuel Muzzio Estudiantes Aktiv 91 / 94 40% 6 07.10.2027 -
Marcelo Olivera Estudiantes Aktiv 91 / 95 40% 1 07.10.2027 -
Agustín Ojeda Chaco For Ever Aktiv 113 / 119 40% 3 06.10.2027 -
Bayron Martínez Santiago Wanderers Aktiv 94 / 105 40% 2 06.10.2027 -
Leandro Allende Colón Aktiv 114 / 122 40% 2 06.10.2027 -
James Sissons Chesterfield Aktiv 65 / 82 40% 1 06.10.2027 -
José Movillo O'Higgins Aktiv 83 / 81 40% 1 05.10.2027 -
Duván Riascos Deportes Quindio Aktiv 78 / 101 40% 1 05.10.2027 -
Jeremías Castro San Martín SJ Aktiv 81 / 102 40% 1 05.10.2027 -
Luis Yanes Real Cartagena Aktiv 94 / 105 40% 2 04.10.2027 -
Ifeagwu Ojukwu Atyrau Aktiv 107 / 86 40% 1 04.10.2027 -
Mathías Silvera Chaco For Ever Aktiv 101 / 109 40% 1 04.10.2027 -
Gabriel Cañete Los Andes Aktiv 108 / 104 40% 1 04.10.2027 -
Nazareno Kihm Ferro Carril Oeste Aktiv 109 / 115 40% 2 03.10.2027 -
Nicolás Moreno San Martín Aktiv 101 / 99 40% 1 03.10.2027 -
Mohammed Galadima Navbahor Aktiv 105 / 97 40% 1 02.10.2027 -
Santiago Rodríguez Fenix Aktiv 82 / 108 40% 1 02.10.2027 -
Agustín Zapata Alvarado Aktiv 93 / 96 40% 1 01.10.2027 -
Monwabisi Mwondla Aktobe Aktiv 66 / 66 40% 1 01.10.2027 -
Gabriel Ratalín San Telmo Aktiv 108 / 87 40% 4 30.09.2027 -
Rodrigo Sosa Atlanta Aktiv 112 / 108 40% 3 29.09.2027 -
Agustín Lastra Estudiantes Aktiv 113 / 109 40% 3 29.09.2027 -
Danil Baklanov Suva Aktiv 72 / 64 40% 2 29.09.2027 -
Ignacio Palacio All Boys Aktiv 105 / 115 40% 1 29.09.2027 -
Joaquín Bigo Tristán Suárez Aktiv 94 / 100 40% 3 28.09.2027 -
Baurzhan Islamkhan Akzhaiyk Aktiv 92 / 104 40% 3 28.09.2027 -
Matthew Grech Birkirkara Aktiv 85 / 63 40% 2 26.09.2027 -
Nicolás Baigorria San Telmo Aktiv 92 / 79 40% 1 26.09.2027 -
Matías Caballero Patronato Aktiv 108 / 115 40% 1 26.09.2027 -
Javier Bustillos Los Andes Aktiv 108 / 109 40% 5 24.09.2027 -
Andrew Wogan Stockport County Aktiv 96 / 97 40% 1 24.09.2027 -
Arthur Nasta Stade Lavallois Aktiv 86 / 78 40% 3 23.09.2027 -
Francis Just Waitakere United Aktiv 75 / 84 40% 4 23.09.2027 -
Tomás Palleres Güemes Aktiv 97 / 107 40% 3 23.09.2027 -
Mateo Pereyra Tacuarembo Aktiv 105 / 82 40% 1 23.09.2027 -
Javohir Abdualimov Mashal Aktiv 75 / 74 40% 2 22.09.2027 -
Pieter Jacobsz Perth Glory Aktiv 97 / 106 40% 1 21.09.2027 -
Gonzalo Baglivo Colegiales Aktiv 104 / 84 40% 2 20.09.2027 -
Luciano Perdomo Chacarita Juniors Aktiv 113 / 125 40% 1 20.09.2027 -
Kit Margetson Swansea City Aktiv 57 / 82 40% 1 20.09.2027 -
Agustín Cañete Banfield Aktiv 87 / 96 40% 1 19.09.2027 -
Jorge Peña Union La Calera Aktiv 112 / 112 40% 1 19.09.2027 -
Cristian González Cerrito Aktiv 109 / 105 40% 2 18.09.2027 -
Miguel Álvarez Tigres Aktiv 77 / 98 40% 1 18.09.2027 -
Ilham Udin Armayn PSBS Biak Aktiv 91 / 96 40% 1 18.09.2027 -
Ignacio Vallejos Colegiales Aktiv 105 / 104 40% 1 18.09.2027 -
Ezequiel Pacheco Chaco For Ever Aktiv 82 / 85 40% 1 17.09.2027 -
Matías Pérez Alvarado Aktiv 98 / 97 40% 1 16.09.2027 -
Felipe Rivarola San Martín Aktiv 109 / 104 40% 1 16.09.2027 -
Gabriel Altamirano Almirante Brown Aktiv 107 / 122 40% 2 15.09.2027 -
Tomás Lingua Rentistas Aktiv 98 / 94 40% 2 15.09.2027 -
Gus Hoefsloot Sydney FC Aktiv 82 / 82 40% 1 15.09.2027 -
Francisco Gualtieri Estudiantes Aktiv 80 / 86 40% 3 14.09.2027 -
Cristian Lora Leones Aktiv 92 / 108 40% 2 14.09.2027 -
Mauricio Lacerda Miramar Misiones Aktiv 72 / 91 40% 5 13.09.2027 -
Cristián Pardo Universidad de Chile Aktiv 105 / 89 40% 1 13.09.2027 -
Sergio Pabón Deportes Quindio Aktiv 107 / 96 40% 1 12.09.2027 -
Angel Uñates Güemes Aktiv 107 / 91 40% 1 12.09.2027 -
Harry Lee Mirandés Aktiv 70 / 90 40% 2 11.09.2027 -
Juan Manuel Carrizo Chaco For Ever Aktiv 99 / 118 40% 6 10.09.2027 -
Ben Purrington Cambridge United Aktiv 93 / 95 40% 4 10.09.2027 -
Awan Setho Bhayangkara Presisi Aktiv 72 / 96 40% 1 10.09.2027 -
Leandro Córdoba Racing Aktiv 85 / 88 40% 2 08.09.2027 -
Reece Byrne Trapani Aktiv 67 / 87 40% 1 08.09.2027 -
Harrison Devenish-Meares Western Sydney Wanderers Aktiv 110 / 91 40% 1 06.09.2027 -
Facundo Pons San Martín Aktiv 112 / 122 40% 1 06.09.2027 -
Rodrigo Monserrat Colegiales Aktiv 97 / 116 40% 1 06.09.2027 -
Mauro Rodas Sportivo Trinidense Aktiv 98 / 89 40% 1 05.09.2027 -
Juan Ignacio Berasi Colón Aktiv 94 / 87 40% 1 04.09.2027 -
Charlie Casper Leixões Aktiv 94 / 76 40% 2 03.09.2027 -
Mateo Natale Defensores Aktiv 97 / 100 40% 2 03.09.2027 -
Juan Bobba Estudiantes de Caracas Aktiv 106 / 103 40% 2 03.09.2027 -
Gabriel Salguero Rewa Aktiv 88 / 77 40% 2 02.09.2027 -
Franco Rivasseau Patronato Aktiv 102 / 103 40% 3 02.09.2027 -
James Stamatelopoulos Hawke's Bay United Aktiv 84 / 75 40% 1 02.09.2027 -
Manuel López Defensores Unidos Aktiv 86 / 112 40% 3 01.09.2027 -
Bobomurod Bozorov Qizilqum Aktiv 92 / 93 40% 1 01.09.2027 -
Federico Amestoy Miramar Misiones Aktiv 91 / 69 40% 4 30.08.2027 -
Dylan Salvo Defensores Unidos Aktiv 84 / 111 40% 2 30.08.2027 -
Ignacio Cardozo Vélez Aktiv 89 / 92 40% 4 29.08.2027 -
Joaquín Mendive Tristán Suárez Aktiv 106 / 102 40% 1 29.08.2027 -
Matías Mansilla Alvarado Aktiv 96 / 104 40% 6 28.08.2027 -
Juan Ramírez Estudiantes de Caracas Aktiv 67 / 79 40% 1 28.08.2027 -
James Pradic Audace Cerignola Aktiv 69 / 80 40% 1 28.08.2027 -
Tom Donaghy Oldham Athletic Aktiv 86 / 60 40% 1 27.08.2027 -
Ignacio Coscio Huracán Aktiv 106 / 109 40% 2 25.08.2027 -
Juan Diego Pérez Real Santander Aktiv 85 / 76 40% 2 25.08.2027 -
Staša Bastić Gzira United Aktiv 103 / 88 40% 4 24.08.2027 -
Wahyudi Hamisi Persijap Aktiv 72 / 80 40% 2 24.08.2027 -
Federico Álvarez Atlanta Aktiv 120 / 113 40% 1 24.08.2027 -
Mauro Alarcón Defensores Unidos Aktiv 117 / 92 40% 1 24.08.2027 -
Debinson Mateus Tigres Aktiv 101 / 90 40% 2 23.08.2027 -
Nicolás Forastiero Deportivo Maldonado Aktiv 109 / 96 40% 1 23.08.2027 -
Ethan Binnie Norwich City Aktiv 50 / 84 40% 1 22.08.2027 -
Evan Anderson Swansea City Aktiv 70 / 81 40% 1 22.08.2027 -
Michael Kelly Accrington Stanley Aktiv 90 / 86 40% 2 21.08.2027 -
Augusto Alcorcel Colegiales Aktiv 98 / 95 40% 1 21.08.2027 -
Ramiro Fernández Almirante Brown Aktiv 103 / 107 40% 7 19.08.2027 -
Abel Argañaraz Gimnasia y Esgrima Aktiv 92 / 105 40% 1 19.08.2027 -
Jackson Mendoza Valletta Aktiv 108 / 91 40% 4 18.08.2027 -
Callum Reid Southern United Aktiv 75 / 81 40% 6 17.08.2027 -
Matías Recalde Gimnasia y Esgrima Aktiv 105 / 112 40% 1 17.08.2027 -
Luciano Peraggini Maipú Aktiv 117 / 119 40% 1 17.08.2027 -
Juan Román Gimenez Estudiantes Aktiv 95 / 88 40% 2 16.08.2027 -
Samuel Posada Leones Aktiv 91 / 88 40% 1 16.08.2027 -
Wladimir Cid Santiago Wanderers Aktiv 83 / 93 40% 1 16.08.2027 -
Marcos Donato Atenas Aktiv 73 / 80 40% 2 15.08.2027 -
José Luis García Alianza Petrolera Aktiv 90 / 98 40% 1 14.08.2027 -
Facundo Sosa La Luz Aktiv 105 / 111 40% 2 13.08.2027 -
Danilo Ruiz Díaz Agropecuario Argentino Aktiv 96 / 122 40% 1 13.08.2027 -
Ali Mekawir Navua Aktiv 62 / 63 40% 3 12.08.2027 -
Facundo Borges Central Espanol Aktiv 104 / 98 40% 2 12.08.2027 -
Tomás Ramírez Morón Aktiv 109 / 121 40% 1 12.08.2027 -
Mirko Parassole Agropecuario Argentino Aktiv 100 / 107 40% 1 12.08.2027 -
Francisco Silva Temperley Aktiv 84 / 99 40% 3 11.08.2027 -
Macula Birkirkara Aktiv 72 / 88 40% 1 11.08.2027 -
Matías Ledesma San Telmo Aktiv 89 / 115 40% 4 10.08.2027 -
Jonathan Marulanda Leones Aktiv 101 / 107 40% 1 10.08.2027 -
Iván Cabrera Arsenal Aktiv 116 / 101 40% 3 09.08.2027 -
Vicente Ramírez Universidad de Chile Aktiv 79 / 90 40% 1 09.08.2027 -
Nahuel Gallardo San Martín Aktiv 107 / 107 40% 3 08.08.2027 -
Lautaro Bursich Talleres Aktiv 88 / 111 40% 1 08.08.2027 -
Lautaro Espeche Instituto Aktiv 84 / 93 40% 2 06.08.2027 -
Dylan Cabral Arsenal Aktiv 105 / 117 40% 2 06.08.2027 -
Juan Cruz Carranza Nueva Chicago Aktiv 82 / 111 40% 1 06.08.2027 -
Kane Smith Barnet Aktiv 80 / 86 40% 6 05.08.2027 -
Andres Lioi Chaco For Ever Aktiv 116 / 117 40% 3 05.08.2027 -
Chris Donnell Central Coast Mariners Aktiv 105 / 95 40% 5 03.08.2027 -
Francesco Rillo Picerno Aktiv 101 / 106 40% 1 03.08.2027 -
Martín Almeida Montevideo City Torque Aktiv 110 / 107 40% 1 02.08.2027 -
Federico Dafonte Boston River Aktiv 104 / 84 40% 3 01.08.2027 -
Navro'zbek Iminjonov Atyrau Aktiv 84 / 101 40% 1 01.08.2027 -
Matías Salerno San Telmo Aktiv 94 / 109 40% 2 31.07.2027 -
Hensen Anponsa Marsaxlokk Aktiv 76 / 96 40% 1 31.07.2027 -
Facundo Figueroa Defensores Unidos Aktiv 84 / 80 40% 2 28.07.2027 -
Franco Meritello Patronato Aktiv 109 / 107 40% 1 25.07.2027 -
Patrick Brough Tranmere Rovers Aktiv 72 / 76 40% 1 24.07.2027 -
Nicholas Pennington Perth Glory Aktiv 94 / 92 40% 1 23.07.2027 -
Sebastián Parada San Luis Aktiv 108 / 100 40% 1 22.07.2027 -
Christian Bracco Team Wellington Aktiv 73 / 92 40% 2 21.07.2027 -
Jonah James Mosta Aktiv 94 / 88 40% 1 21.07.2027 -
Theo Vassell Blackpool Aktiv 93 / 108 40% 1 21.07.2027 -
Hector Hernandez La Equidad Aktiv 99 / 103 40% 1 20.07.2027 -
Agustín Zabaleta Chaco For Ever Aktiv 85 / 95 40% 1 20.07.2027 -
Tom Bradbury Harrogate Town Aktiv 82 / 88 40% 3 19.07.2027 -
Carlos Hormazábal San Luis Aktiv 76 / 95 40% 1 18.07.2027 -
Myles Beerman Floriana Aktiv 62 / 81 40% 2 17.07.2027 -
Riccardo Brugnolo Dolomiti Bellunesi Aktiv 96 / 96 40% 1 17.07.2027 -
Jaiden Kucharski Perth Glory Aktiv 107 / 103 40% 1 16.07.2027 -
Joaquín Tonet Defensores Aktiv 90 / 112 40% 4 15.07.2027 -
Domantas Šimkus Marsaxlokk Aktiv 98 / 103 40% 2 15.07.2027 -
Daniel Acosta Unión de Santa Fe Aktiv 108 / 102 40% 2 15.07.2027 -
Gabriel Carrasco Los Andes Aktiv 96 / 96 40% 2 15.07.2027 -
Tomás Díaz Grassano San Miguel Aktiv 102 / 108 40% 1 14.07.2027 -
Ronaldo Royero Depor Aktiv 100 / 87 40% 3 13.07.2027 -
Danilo Actis Agropecuario Argentino Aktiv 114 / 92 40% 1 13.07.2027 -
Lukas Kelly-Heald Wellington Phoenix Aktiv 111 / 99 40% 1 12.07.2027 -
Ian López Tacuarembo Aktiv 105 / 98 40% 3 11.07.2027 -
Pietro Reggiori Pro Patria Aktiv 100 / 102 40% 1 11.07.2027 -
Matías Canedo Rampla Juniors Aktiv 98 / 89 40% 1 11.07.2027 -
Fabricio Hass Central Norte Aktiv 100 / 119 40% 1 10.07.2027 -
Renato Alexandrino Oriental Aktiv 91 / 89 40% 1 09.07.2027 -
Tiago Taobas Central Norte Aktiv 75 / 93 40% 2 08.07.2027 -
Samuel Peréa Bogota Aktiv 74 / 97 40% 1 08.07.2027 -
Francis Hurl Shrewsbury Town Aktiv 87 / 84 40% 1 08.07.2027 -
Mariano Nichele Cerro Aktiv 103 / 97 40% 4 06.07.2027 -
Tomás Salteño Rosario Central Aktiv 94 / 95 40% 2 05.07.2027 -
Marley Tavaziva Boa Aktiv 87 / 68 40% 1 05.07.2027 -
Harold Sandoval Bogota Aktiv 86 / 74 40% 1 04.07.2027 -
Matías García San Martín Aktiv 93 / 105 40% 3 01.07.2027 -
Nikolai Muscat Marsaxlokk Aktiv 80 / 97 40% 2 01.07.2027 -
Diego Espindola Defensores Unidos Aktiv 98 / 119 40% 2 30.06.2027 -
José Duarte Tacuarembo Aktiv 66 / 95 40% 2 30.06.2027 -
Santiago Bellatti Patronato Aktiv 118 / 118 40% 1 30.06.2027 -
Jack Phillips Pro Vercelli Aktiv 86 / 68 40% 1 28.06.2027 -
Giuseppe Salvo Picerno Aktiv 112 / 109 40% 1 26.06.2027 -
Rodrigo Russo Vélez Aktiv 70 / 90 40% 1 26.06.2027 -
Luke Hewitson Fleetwood Town Aktiv 70 / 95 40% 4 23.06.2027 -
Brayan Castro Bogota Aktiv 99 / 94 40% 1 23.06.2027 -
Jeremiah Okine-Peters Ospitaletto Aktiv 94 / 91 40% 4 22.06.2027 -
Juan José Vásquez Union Magdalena Aktiv 83 / 77 40% 2 21.06.2027 -
Nahuel Acosta Progreso Aktiv 106 / 111 40% 1 21.06.2027 -
Tomás Giménez Gimnasia y Esgrima Aktiv 115 / 103 40% 1 21.06.2027 -
Sebastián Cal Rampla Juniors Aktiv 82 / 90 40% 1 18.06.2027 -
Valentín Matlis San Telmo Aktiv 88 / 98 40% 3 17.06.2027 -
Rylee Mitchell Colchester United Aktiv 63 / 69 40% 1 16.06.2027 -
Tom Finch Milton Keynes Dons Aktiv 72 / 60 40% 2 15.06.2027 -
Daniel Ferraresi Llaneros Aktiv 96 / 73 40% 1 15.06.2027 -
Vicente Bernedo Universidad Catolica Aktiv 86 / 107 40% 1 15.06.2027 -
James Dadge Northampton Town Aktiv 74 / 70 40% 1 14.06.2027 -
Ali Auglah Central Coast Mariners Aktiv 81 / 93 40% 4 13.06.2027 -
Agustín Díaz Estudiantes de Caracas Aktiv 70 / 63 40% 1 13.06.2027 -
Luciano Acosta Agropecuario Argentino Aktiv 90 / 84 40% 1 12.06.2027 -
Harry Evans Feirense Aktiv 71 / 95 40% 5 08.06.2027 -
Nathan Amanatidis Brisbane Roar Aktiv 79 / 87 40% 2 08.06.2027 -
Frank Ruiz Once Caldas Aktiv 82 / 96 40% 1 08.06.2027 -
Luciano Zannier Talleres Aktiv 95 / 101 40% 1 07.06.2027 -
Emanuele Occhipinti Giana Erminio Aktiv 96 / 68 40% 1 07.06.2027 -
Julio Patiño Fortaleza CEIF Aktiv 97 / 74 40% 1 04.06.2027 -
Barrie Limoki Nadroga Aktiv 54 / 75 51% 1 03.06.2027 -
Brian Okonkwo Leyton Orient Aktiv 58 / 79 40% 1 03.06.2027 -
Ahmad Noviandani Madura United Aktiv 99 / 79 40% 2 30.05.2027 -
Alejandro Amaya Cortulua Aktiv 81 / 94 40% 1 30.05.2027 -
José Álvarez Albion Aktiv 102 / 119 40% 2 27.05.2027 -
Reece Evans Reading Aktiv 83 / 78 40% 2 26.05.2027 -
Joel Lucero Estudiantes Aktiv 93 / 97 40% 1 25.05.2027 -
Federico Sellecchia Agropecuario Argentino Aktiv 113 / 117 40% 6 22.05.2027 -
Lucas Di Maio Cobresal Aktiv 72 / 69 40% 2 22.05.2027 -
Yastin Cuevas Colo-Colo Aktiv 94 / 102 40% 1 20.05.2027 -
Emiliano Bértoli Patronato Aktiv 89 / 104 40% 1 20.05.2027 -
Carlos Cabezas Depor Aktiv 71 / 73 40% 1 18.05.2027 -
Jack Ruddy Norwich City Aktiv 70 / 83 40% 1 17.05.2027 -
Coby Hewitson Sheffield United Aktiv 59 / 86 40% 1 17.05.2027 -
Maxwell Rodrigues Willem II Aktiv 83 / 81 40% 2 16.05.2027 -
Jing Reec Macarthur FC Aktiv 99 / 99 40% 3 14.05.2027 -
Álex Segura Real Santander Aktiv 95 / 92 40% 1 11.05.2027 -
Alessandro Di Munno Pro Patria Aktiv 90 / 103 40% 1 11.05.2027 -
Sebastian Kršlović Macarthur FC Aktiv 106 / 100 40% 1 10.05.2027 -
Chris Long Newport County Aktiv 80 / 98 40% 2 09.05.2027 -
Wataru Kamijo Sydney FC Aktiv 67 / 83 40% 3 09.05.2027 -
Lucas Ruiz Ferro Carril Oeste Aktiv 95 / 116 40% 1 08.05.2027 -
Juan Jaime San Martín Aktiv 79 / 106 40% 1 06.05.2027 -
Oscar Page Brisbane Roar Aktiv 76 / 71 40% 1 06.05.2027 -
Jack Warshawsky Melbourne Victory Aktiv 97 / 98 40% 4 05.05.2027 -
Yuval Kretzo Maccabi Petach Tikva Aktiv 96 / 72 40% 1 03.05.2027 -
Reggie Rose Tranmere Rovers Aktiv 76 / 63 40% 3 30.04.2027 -
Mauro Chacón Maipú Aktiv 69 / 92 40% 2 30.04.2027 -
Ollie Dewsbury Bristol Rovers Aktiv 72 / 69 40% 1 29.04.2027 -
Billy Phillips Bristol City Aktiv 57 / 80 40% 2 26.04.2027 -
Luciano Recalde Quilmes Aktiv 114 / 120 40% 2 25.04.2027 -
Arthur De Lima Central Coast Mariners Aktiv 108 / 97 40% 5 24.04.2027 -
Fidel Tourn Albion Aktiv 99 / 100 40% 1 24.04.2027 -
Will Merry Milton Keynes Dons Aktiv 92 / 74 40% 2 23.04.2027 -
Juan Sebastián Rivero Progreso Aktiv 96 / 114 40% 2 22.04.2027 -
Santiago Amaral Artigas Aktiv 76 / 82 40% 1 22.04.2027 -
Olughu Chinemerem Fenix Aktiv 98 / 105 40% 1 22.04.2027 -
Jeremías Robledo Acosta Newell's Old Boys Aktiv 92 / 105 40% 1 22.04.2027 -
Brandon Álvarez Penarol Aktiv 71 / 100 40% 2 20.04.2027 -
Pablo Cáceres Morón Aktiv 88 / 90 40% 1 20.04.2027 -
Jake Waters Pontedera Aktiv 62 / 61 40% 2 18.04.2027 -
Franco García Ferro Carril Oeste Aktiv 93 / 99 40% 4 18.04.2027 -
Mohcine Hassan PSBS Biak Aktiv 72 / 70 40% 1 17.04.2027 -
Luca Duarte Arsenal Aktiv 68 / 86 40% 1 16.04.2027 -
Miguel Marulanda Envigado Aktiv 81 / 107 40% 1 15.04.2027 -
Leonardo Pais Cerro Aktiv 116 / 86 40% 1 14.04.2027 -
Bailey O'Neil Adelaide United Aktiv 82 / 91 40% 2 13.04.2027 -
Darren Robinson Doncaster Rovers Aktiv 74 / 83 40% 3 13.04.2027 -
Luca Pichin Wayttorn All Boys Aktiv 71 / 72 40% 2 12.04.2027 -
Bruno Barrionuevo Godoy Cruz Aktiv 94 / 97 40% 1 09.04.2027 -
Archie Harris Wigan Athletic Aktiv 69 / 72 40% 2 06.04.2027 -
David Reyes Bogota Aktiv 72 / 83 40% 1 06.04.2027 -
Juan Sebastián Ramírez Deportivo Cali Aktiv 102 / 98 40% 1 05.04.2027 -
Israel Monga Adelaide United Aktiv 70 / 80 40% 1 05.04.2027 -
Matías Améstica Santiago Wanderers Aktiv 86 / 86 40% 1 02.04.2027 -
Joaquín Canadell Quilmes Aktiv 89 / 101 40% 2 01.04.2027 -
Ángel Stringa Deportivo Riestra Aktiv 109 / 94 40% 1 01.04.2027 -
Jorge Sanguina Colón Aktiv 104 / 110 40% 1 01.04.2027 -
Faustino Piotti Newell's Old Boys Aktiv 88 / 99 40% 1 01.04.2027 -
Kristian Popovic Central Coast Mariners Aktiv 93 / 76 40% 2 30.03.2027 -
Noah McCann Central Coast Mariners Aktiv 63 / 77 40% 1 29.03.2027 -
Erik Ingebrethsen Sporting CP Aktiv 68 / 92 40% 1 29.03.2027 -
Thiago Luppi Ferro Carril Oeste Aktiv 95 / 103 40% 1 27.03.2027 -
Franco Pulian Chacarita Juniors Aktiv 79 / 93 40% 1 26.03.2027 -
Francisco Garrido Ferro Carril Oeste Aktiv 96 / 105 40% 1 26.03.2027 -
Harrison Chamberlain Colchester United Aktiv 63 / 69 40% 2 25.03.2027 -
Jerónimo Buosi Colón Aktiv 76 / 96 40% 2 24.03.2027 -
Benjamín Rodríguez Rentistas Aktiv 70 / 99 40% 2 22.03.2027 -
Zach Lisolajski Jubilo Iwata Aktiv 104 / 80 40% 1 21.03.2027 -
Claudio Salto Almagro Aktiv 105 / 103 40% 2 19.03.2027 -
Tom Norcott Reading Aktiv 88 / 70 40% 1 19.03.2027 -
Zachary De Jesus Sydney FC Aktiv 81 / 95 40% 4 18.03.2027 -
Caleb Roberts Plymouth Argyle Aktiv 74 / 74 40% 1 18.03.2027 -
Lucas Angelini Temperley Aktiv 117 / 117 40% 3 16.03.2027 -
Michael Pistiner Bnei Yehuda Aktiv 70 / 92 40% 2 13.03.2027 -
Thiago Yfran Temperley Aktiv 92 / 96 40% 1 13.03.2027 -
Khiani Shombe Hull City Aktiv 80 / 68 40% 2 12.03.2027 -
Ezequiel Ramírez All Boys Aktiv 112 / 103 40% 2 12.03.2027 -
Luciano Aberasteguy Deportivo Maldonado Aktiv 77 / 78 40% 1 10.03.2027 -
Sebastián Buitrago Atletico Nacional Aktiv 89 / 102 40% 1 08.03.2027 -
Zak Bradshaw Cambridge United Aktiv 74 / 98 40% 1 07.03.2027 -
Alejandro Gutiérrez Madryn Aktiv 112 / 105 40% 1 04.03.2027 -
Daniel Abello Mitre Aktiv 92 / 108 40% 1 02.03.2027 -
Luca Neu Utrecht Aktiv 104 / 105 40% 1 02.03.2027 -
Marcos Ferreira Miramar Misiones Aktiv 108 / 97 40% 1 02.03.2027 -
Donald Love Accrington Stanley Aktiv 82 / 84 40% 1 28.02.2027 -
Joel Erlinch Racing Aktiv 86 / 104 40% 2 27.02.2027 -
Joshua Inserra Melbourne Victory Aktiv 82 / 94 40% 2 26.02.2027 -
Franco Toloza Morón Aktiv 123 / 104 40% 3 25.02.2027 -
Maximiliano González Morón Aktiv 97 / 102 40% 2 24.02.2027 -
Connor Barratt Barnsley Aktiv 73 / 82 40% 1 24.02.2027 -
Noah Cooper Stoke City Aktiv 60 / 86 40% 1 24.02.2027 -
Fabricio Mendieta Belgrano Aktiv 103 / 100 40% 1 20.02.2027 -
Luciano Miño Newell's Old Boys Aktiv 99 / 90 40% 1 19.02.2027 -
Valentín Quevedo Colegiales Aktiv 118 / 118 40% 2 18.02.2027 -
Brian Martínez Huracán Aktiv 102 / 90 40% 1 18.02.2027 -
Daniel Zapata Envigado Aktiv 81 / 112 40% 1 18.02.2027 -
Liam Gibson Harrogate Town Aktiv 79 / 68 40% 1 18.02.2027 -
Thiago Gigena Casarano Aktiv 95 / 70 40% 1 15.02.2027 -
Ben Middlemas Swindon Town Aktiv 92 / 85 40% 1 15.02.2027 -
Alan Sosa Defensores Unidos Aktiv 106 / 112 40% 1 15.02.2027 -
Kieran Wilson Exeter City Aktiv 76 / 80 40% 2 13.02.2027 -
Wonderson Yakubu Hapoel Raanana Aktiv 52 / 59 40% 2 12.02.2027 -
Matías Batule Mitre Aktiv 101 / 97 40% 1 12.02.2027 -
Valentín Catalán Argentinos Juniors Aktiv 99 / 109 40% 1 12.02.2027 -
Jacob Poytress Cheltenham Town Aktiv 56 / 64 40% 1 10.02.2027 -
Gonzalo Laborda Racing Aktiv 100 / 99 40% 1 10.02.2027 -
Julián Ledesma Arsenal Aktiv 68 / 78 40% 2 09.02.2027 -
Neo Dobson Northampton Town Aktiv 81 / 93 40% 1 09.02.2027 -
Ryan Kitto Adelaide United Aktiv 101 / 94 40% 1 08.02.2027 -
Liam Jessop Chesterfield Aktiv 83 / 66 40% 3 07.02.2027 -
Ryan Howley Bristol Rovers Aktiv 102 / 95 40% 1 07.02.2027 -
Angus Kilkolly Auckland City Aktiv 80 / 75 40% 1 06.02.2027 -
Ignacio Giacinti Patronato Aktiv 102 / 92 40% 1 06.02.2027 -
Santiago Daniele Chacarita Juniors Aktiv 119 / 123 40% 1 06.02.2027 -
Carlos Richards Bromley Aktiv 85 / 61 40% 1 04.02.2027 -
Santiago Lallana Racing Aktiv 88 / 98 40% 1 03.02.2027 -
Juan Manuel Mazzolo Maipú Aktiv 97 / 93 40% 1 02.02.2027 -
Harry McGlinchey Sheffield United Aktiv 93 / 84 40% 1 02.02.2027 -
Guillermo Rodríguez San Martín Aktiv 90 / 108 40% 1 01.02.2027 -
Rodrigo Arnay Güemes Aktiv 103 / 80 40% 1 31.01.2027 -
Harry French Colchester United Aktiv 69 / 84 40% 1 26.01.2027 -
James Hilton Macarthur FC Aktiv 79 / 78 40% 1 26.01.2027 -
Tiernan Brooks Colchester United Aktiv 67 / 91 40% 3 24.01.2027 -
Zahir Yunis Colón Aktiv 92 / 117 40% 1 23.01.2027 -
Yoimer Pacheco Union Magdalena Aktiv 84 / 68 40% 1 19.01.2027 -
Mateo Albornoz Unión de Santa Fe Aktiv 81 / 94 40% 1 15.01.2027 -
Matías Cantero All Boys Aktiv 88 / 83 40% 1 13.01.2027 -
Facundo da Costa Cerro Largo Aktiv 72 / 92 40% 1 10.01.2027 -
Franco Caro Defensores Aktiv 87 / 93 40% 1 08.01.2027 -
Gonzalo Sosa Defensa y Justicia Aktiv 71 / 75 40% 1 07.01.2027 -
Felipe Tempone Independiente Aktiv 91 / 78 40% 1 07.01.2027 -
Maximiliano Arias Defensores Aktiv 78 / 91 40% 1 03.01.2027 -
Revans Reddy Suva Aktiv 47 / 48 51% 1 01.01.2027 -
Hernán Sanabria Barracas Central Aktiv 91 / 73 40% 1 01.01.2027 -
Facundo Maldonado Gimnasia y Esgrima Aktiv 110 / 80 40% 1 31.12.2026 -
Connor Wolfheimer Brentford Aktiv 61 / 55 40% 1 30.12.2026 -
Ewan Griffiths Cardiff City Aktiv 70 / 71 40% 1 29.12.2026 -
Sebastián Alzate Once Caldas Aktiv 83 / 93 40% 3 28.12.2026 -
Seb Stacey Milton Keynes Dons Aktiv 62 / 59 40% 2 28.12.2026 -
David Mojica Union Magdalena Aktiv 78 / 72 40% 1 24.12.2026 -
Santiago Uriza Vélez Aktiv 94 / 85 40% 1 24.12.2026 -
Benjamín Zuqui Patronato Aktiv 84 / 107 40% 1 24.12.2026 -
Branco Ripoll Aldosivi Aktiv 69 / 104 40% 1 23.12.2026 -
Mateo Telechea Liverpool Montevideo Aktiv 85 / 77 40% 1 23.12.2026 -
Maximo Ingravidi Colón Aktiv 104 / 109 40% 2 20.12.2026 -
Aron Agüero Maipú Aktiv 124 / 124 40% 1 20.12.2026 -
Juan Fernándes Pinto Almagro Aktiv 119 / 100 40% 1 20.12.2026 -
Tobías Barrionuevo Gimnasia y Tiro Aktiv 61 / 75 40% 1 19.12.2026 -
Santiago Garro Almirante Brown Aktiv 82 / 106 40% 1 18.12.2026 -
Emiliano Zacca Deportivo Riestra Aktiv 99 / 88 40% 1 17.12.2026 -
Matías Escobar San Miguel Aktiv 78 / 98 40% 2 15.12.2026 -
Ashton Rinaldo Chesterfield Aktiv 75 / 68 40% 1 15.12.2026 -
Catriel Peña Racing Aktiv 87 / 103 40% 1 14.12.2026 -
Gianluca Banuera Tristán Suárez Aktiv 76 / 94 40% 1 14.12.2026 -
Bless Akolbire Leicester City Aktiv 66 / 73 40% 1 14.12.2026 -
Chanse Headman Harrogate Town Aktiv 93 / 88 40% 1 13.12.2026 -
Federico Montiel Agropecuario Argentino Aktiv 84 / 105 40% 1 12.12.2026 -
Luciano Paredes Maipú Aktiv 84 / 99 40% 1 11.12.2026 -
Julián Aquino Atlanta Aktiv 93 / 107 40% 1 10.12.2026 -
Tomás López River Plate Aktiv 107 / 103 40% 1 09.12.2026 -
Rafael Hornos Liverpool Montevideo Aktiv 93 / 76 40% 1 08.12.2026 -
Jack Thompson Derby County Aktiv 74 / 57 40% 1 08.12.2026 -
Miloš Jovičić Zabbar St. Patrick Aktiv 71 / 115 40% 1 07.12.2026 -
Joaquín Toranzo Sarmiento Aktiv 67 / 80 40% 1 05.12.2026 -
Francisco Robinson San Martín Aktiv 97 / 101 40% 1 05.12.2026 -
Tomás Chetelain Estudiantes Aktiv 95 / 92 40% 3 03.12.2026 -
Joaquín Nazar Maipú Aktiv 74 / 72 40% 1 03.12.2026 -
Gonzalo de Mello Liverpool Montevideo Aktiv 92 / 103 40% 1 03.12.2026 -
Owen Mason Mansfield Town Aktiv 78 / 80 40% 1 03.12.2026 -
Enzo Arrubia Almirante Brown Aktiv 80 / 91 40% 4 02.12.2026 -
Nicolás Casa Gimnasia y Esgrima Aktiv 87 / 92 40% 1 02.12.2026 -
Federico Bonilla Nacional Aktiv 95 / 82 40% 2 01.12.2026 -
Fabian Talladira Adelaide United Aktiv 79 / 100 40% 2 01.12.2026 -
Luca Regiardo Newell's Old Boys Aktiv 100 / 101 40% 1 30.11.2026 -
Facundo Binzugna Boca Juniors Aktiv 98 / 101 40% 2 29.11.2026 -
Axel Araujo San Lorenzo Aktiv 91 / 75 40% 1 29.11.2026 -
Caleb Ansen Grimsby Town Aktiv 92 / 85 40% 1 29.11.2026 -
Oliver Armstrong Crewe Alexandra Aktiv 82 / 73 40% 1 27.11.2026 -
Emanuel Sittaro Instituto Aktiv 97 / 94 40% 2 26.11.2026 -
Gerónimo Tomasetti Temperley Aktiv 95 / 103 40% 2 26.11.2026 -
Diego Valencia Universidad Catolica Aktiv 118 / 100 40% 4 24.11.2026 -
Tiziano Delias Sarmiento Aktiv 91 / 91 40% 2 24.11.2026 -
Szymon Terenowicz Birmingham Aktiv 84 / 73 40% 2 24.11.2026 -
Sammy Henia-Kamau Colchester United Aktiv 59 / 69 40% 1 24.11.2026 -
Daeshon Lawrence Bolton Wanderers Aktiv 70 / 85 40% 1 22.11.2026 -
Benji Wetshi Burnley Aktiv 65 / 90 40% 1 22.11.2026 -
Santino Gianoli Almirante Brown Aktiv 92 / 102 40% 1 21.11.2026 -
Tomás Romero Unión de Santa Fe Aktiv 84 / 113 40% 1 20.11.2026 -
Bruno Hernández Cerro Largo Aktiv 94 / 105 40% 1 19.11.2026 -
Aaron Vera Maipú Aktiv 103 / 102 40% 1 18.11.2026 -
Bautista La Licata Belgrano Aktiv 81 / 104 40% 1 17.11.2026 -
Joe Collins Swansea City Aktiv 49 / 55 40% 1 16.11.2026 -
Chrisnovic N'sa Gzira United Aktiv 101 / 81 40% 1 16.11.2026 -
Andriano Lebib Perth Glory Aktiv 89 / 91 40% 2 14.11.2026 -
Rodrigo Frutos Olimpia Aktiv 98 / 113 40% 2 14.11.2026 -
Fabián Palomino Ayacucho Aktiv 92 / 68 40% 1 13.11.2026 -
Germán Barbas Penarol Aktiv 90 / 111 40% 1 12.11.2026 -
Thiago Nahuel Independiente Aktiv 80 / 80 40% 1 11.11.2026 -
Facundo Di Sibio Agropecuario Argentino Aktiv 89 / 79 40% 1 11.11.2026 -
Juan Farías Defensores Unidos Aktiv 100 / 100 40% 2 10.11.2026 -
Federico Ricca Belgrano Aktiv 112 / 128 40% 1 10.11.2026 -
Rodrigo González Estudiantes Aktiv 106 / 110 40% 2 09.11.2026 -
Diego Capdevila Cerro Aktiv 85 / 86 40% 1 09.11.2026 -
Cristhofer Mesías Universidad de Concepcion Aktiv 96 / 116 40% 1 09.11.2026 -
Alex Villa González Atlético Tucumán Aktiv 74 / 72 40% 1 08.11.2026 -
Adrián Csenterics Estudiantes de Merida Aktiv 107 / 110 40% 2 07.11.2026 -
Exequiel Quintana Temperley Aktiv 70 / 90 40% 2 07.11.2026 -
Víctor Machado Independiente Rivadavia Aktiv 88 / 89 40% 1 07.11.2026 -
Juan Flórez Valledupar Aktiv 80 / 75 40% 1 07.11.2026 -
Lautaro Díaz San Martín Aktiv 81 / 78 40% 2 06.11.2026 -
Alejandro Garay Independiente Aktiv 100 / 84 40% 2 06.11.2026 -
Daniel Simon Auckland City Aktiv 63 / 65 40% 1 06.11.2026 -
Thiago Cano Banfield Aktiv 71 / 99 40% 3 05.11.2026 -
David Fernández Unión de Santa Fe Aktiv 66 / 94 40% 2 03.11.2026 -
Gonzalo Tapia Palestino Aktiv 116 / 99 40% 2 02.11.2026 -
Juan Francisco Rossel Universidad Catolica Aktiv 108 / 85 40% 1 02.11.2026 -
Carlo Lattanzio San Martín SJ Aktiv 121 / 110 40% 1 31.10.2026 -
Tomás Arias Independiente Rivadavia Aktiv 98 / 107 40% 1 31.10.2026 -
Álbaro Polo Portuguesa Aktiv 87 / 108 40% 1 30.10.2026 -
Freddy Molina Union Magdalena Aktiv 84 / 87 40% 1 29.10.2026 -
Leandro Ortiz San Miguel Aktiv 71 / 81 40% 1 27.10.2026 -
Iván Cartés Rentistas Aktiv 82 / 81 40% 1 25.10.2026 -
Rodrigo Stocco Temperley Aktiv 95 / 77 40% 1 25.10.2026 -
Román Zalazar Nueva Chicago Aktiv 82 / 110 40% 1 25.10.2026 -
Tiago Marghetich Quilmes Aktiv 94 / 90 40% 3 24.10.2026 -
Nicolás Nagel Colón Aktiv 97 / 98 40% 2 24.10.2026 -
Dennis Mena Santa Fe Aktiv 99 / 90 40% 1 24.10.2026 -
Alberto Martínez Guarani Aktiv 93 / 76 40% 1 24.10.2026 -
Vito Rosané Estudiantes Aktiv 94 / 68 40% 1 21.10.2026 -
Jorge Georgieff Estudiantes Aktiv 92 / 87 40% 1 21.10.2026 -
Duván Mósquera Aguilas Doradas Aktiv 119 / 97 40% 2 20.10.2026 -
Michael Waine Southern United Aktiv 80 / 90 40% 1 20.10.2026 -
Jorge Martínez Deportivo Pereira Aktiv 73 / 94 40% 1 19.10.2026 -
Juan David Ramírez Leones Aktiv 59 / 68 40% 1 19.10.2026 -
Luther Rueda Deportivo Pasto Aktiv 83 / 84 40% 1 18.10.2026 -
Maicol León Huachipato Aktiv 76 / 104 40% 1 18.10.2026 -
Facundo Ledesma Mitre Aktiv 94 / 77 40% 1 16.10.2026 -
Tobías Ganduglia Independiente Rivadavia Aktiv 87 / 106 40% 1 15.10.2026 -
Nahuel Frascone Arsenal Aktiv 95 / 109 40% 1 15.10.2026 -
Emiliano Zambrano Gimnasia y Esgrima Aktiv 79 / 99 40% 1 14.10.2026 -
Tomás Soto Envigado Aktiv 104 / 99 40% 1 14.10.2026 -
Juan Esteban García Deportes Tolima Aktiv 72 / 89 40% 1 14.10.2026 -
Facundo Pérez Juventud Aktiv 107 / 100 40% 1 13.10.2026 -
Rotceh Aguilar Cienciano Aktiv 102 / 84 40% 1 13.10.2026 -
David Agudelo Depor Aktiv 108 / 79 40% 2 12.10.2026 -
Thomás Romero Agropecuario Argentino Aktiv 67 / 101 40% 1 12.10.2026 -
Carlos Hernández Deportivo Riestra Aktiv 97 / 84 40% 1 11.10.2026 -
Jeyson Rojas Colo-Colo Aktiv 105 / 89 40% 1 11.10.2026 -
Valentín Sosa Godoy Cruz Aktiv 77 / 55 40% 1 10.10.2026 -
Mateo Cirigliano Almagro Aktiv 85 / 87 40% 1 08.10.2026 -
Juan Álvarez Argentinos Juniors Aktiv 96 / 100 40% 1 08.10.2026 -
Máximo Cabrera Gimnasia La Plata Aktiv 63 / 79 40% 1 08.10.2026 -
Mathías Bernatene Liverpool Montevideo Aktiv 105 / 115 40% 1 07.10.2026 -
Thiago Perruisset Boca Juniors Aktiv 70 / 102 40% 1 07.10.2026 -
Santiago Rátiva Tigres Aktiv 71 / 83 40% 1 06.10.2026 -
Conrado Ibarra Colón Aktiv 100 / 96 40% 1 05.10.2026 -
Walberto Agámez Alianza Petrolera Aktiv 71 / 95 40% 1 04.10.2026 -
Juan Rodríguez Wanderers Aktiv 76 / 93 40% 1 03.10.2026 -
Joshua Carabajal Barracas Central Aktiv 95 / 66 40% 1 03.10.2026 -
Lautaro Pertusatti River Plate Aktiv 122 / 108 40% 1 28.09.2026 -
Sabino González Sarmiento Aktiv 72 / 93 40% 1 23.09.2026 -
Thomas Correa Chacarita Juniors Aktiv 71 / 95 40% 1 22.09.2026 -
Manuel Núñez Tacuarembo Aktiv 77 / 102 40% 1 21.09.2026 -
Ignacio Abarza Huracán Aktiv 104 / 110 40% 1 21.09.2026 -
Joel Abraham Boston River Aktiv 81 / 106 40% 1 19.09.2026 -
Lautaro Occhiuzzi Atlanta Aktiv 89 / 100 40% 1 18.09.2026 -
Luciano Cingolani Gimnasia y Esgrima Aktiv 101 / 107 40% 1 18.09.2026 -
Laureano Paez Colón Aktiv 91 / 82 40% 1 18.09.2026 -
Jerónimo Gutiérrez Independiente Rivadavia Aktiv 75 / 84 40% 1 16.09.2026 -
Andrew Zamorano Rewa Aktiv 87 / 98 40% 1 16.09.2026 -
Valentino Buccolo Platense Aktiv 67 / 64 40% 1 16.09.2026 -
Agustín Páez Maipú Aktiv 91 / 103 40% 1 14.09.2026 -
Diego Robles Union Espanola Aktiv 77 / 87 40% 1 14.09.2026 -
Sotiri Phillis Adelaide United Aktiv 80 / 88 40% 1 10.09.2026 -
Sebastián Dátolo Tristán Suárez Aktiv 66 / 90 40% 1 10.09.2026 -
Abel Galbán Colón Aktiv 100 / 80 40% 1 08.09.2026 -
Leonel Troncoso Gimnasia La Plata Aktiv 74 / 99 40% 1 07.09.2026 -
Jano Franco Independiente Rivadavia Aktiv 86 / 87 40% 1 06.09.2026 -
Diego Méndez Tacuarembo Aktiv 108 / 88 40% 2 04.09.2026 -
Luis Guevara Real Cartagena Aktiv 116 / 98 40% 2 04.09.2026 -
Tiago Esidín Ferro Carril Oeste Aktiv 90 / 105 40% 1 04.09.2026 -
Dante Jadli Temperley Aktiv 67 / 86 40% 1 04.09.2026 -
Juan Agustín Lorenzo Defensores Unidos Aktiv 92 / 75 40% 1 03.09.2026 -
Nicolás Filippa Sarmiento Aktiv 92 / 83 40% 1 03.09.2026 -
Jesús Mejía Real Santander Aktiv 71 / 80 40% 1 01.09.2026 -
Santino Gallardo Platense Aktiv 95 / 102 40% 1 30.08.2026 -
Axel Bordón Güemes Aktiv 103 / 97 40% 1 29.08.2026 -
Lautaro Duarte Deportivo Riestra Aktiv 98 / 106 40% 1 28.08.2026 -
Joaquín Mancuso Vélez Aktiv 86 / 78 40% 1 27.08.2026 -
Ezequiel Bulacio Morón Aktiv 91 / 88 40% 1 26.08.2026 -
Joaquín Santos Almirante Brown Aktiv 75 / 82 40% 1 25.08.2026 -
Martín Rodríguez Mitre Aktiv 95 / 109 40% 1 19.08.2026 -
Oscar Cáceres Sportivo Luqueno Aktiv 100 / 75 40% 1 17.08.2026 -
Hugo Gaona Sportivo Luqueno Aktiv 74 / 81 40% 1 12.08.2026 -
Kevin Lezcano Guarani Aktiv 66 / 88 40% 1 11.08.2026 -
Adam Bell Auckland City Aktiv 69 / 84 40% 1 08.08.2026 -
Juan Cekalovich Gimnasia y Esgrima Aktiv 105 / 94 40% 1 07.08.2026 -
Santiago Jiménez Real Santander Aktiv 97 / 71 40% 1 07.08.2026 -
Ben Warland Brisbane Roar Aktiv 86 / 87 40% 1 07.08.2026 -
Lionel Brito Almirante Brown Aktiv 60 / 87 40% 1 06.08.2026 -
Juan Pablo Moreno Defensa y Justicia Aktiv 75 / 105 40% 1 06.08.2026 -
Renato Ardissono San Lorenzo Aktiv 89 / 92 40% 1 06.08.2026 -
Christian Valladolid Alianza Atletico Aktiv 68 / 81 40% 1 05.08.2026 -
Benjamín Iriart Tigre Aktiv 57 / 73 40% 1 05.08.2026 -
Mateo Ortale Maipú Aktiv 107 / 89 40% 1 04.08.2026 -
Nazareno Mercado Chacarita Juniors Aktiv 75 / 84 40% 1 04.08.2026 -
Francisco Ginella Albion Aktiv 115 / 95 40% 1 04.08.2026 -
Augusto Kalayda Banfield Aktiv 80 / 66 40% 1 04.08.2026 -
Ignacio Álvarez San Telmo Aktiv 79 / 81 40% 1 03.08.2026 -
Nazareno Fernández Colombo Los Andes Aktiv 108 / 114 40% 1 02.08.2026 -
Thiago Yossen Madryn Aktiv 103 / 91 40% 1 02.08.2026 -
Enzo Cabrera Danubio Aktiv 85 / 125 40% 1 01.08.2026 -
Leandro Ciccolini Gimnasia y Esgrima Aktiv 126 / 99 40% 1 01.08.2026 -